createdAt,value
2018-12-26T00:01:10.445Z,21.10
2018-12-26T00:03:37.697Z,23.53
2018-12-26T00:06:04.851Z,25.30
2018-12-26T00:08:32.037Z,22.23
2018-12-26T00:10:59.226Z,25.87
2018-12-26T00:13:26.442Z,22.20
2018-12-26T00:15:53.623Z,24.23
2018-12-26T00:18:20.858Z,25.73
2018-12-26T00:20:48.065Z,20.00
2018-12-26T00:23:15.231Z,24.50
2018-12-26T00:25:42.421Z,25.20
2018-12-26T00:28:09.586Z,24.73
2018-12-26T00:30:36.784Z,22.83
2018-12-26T00:33:03.966Z,24.80
2018-12-26T00:35:31.171Z,25.70
2018-12-26T00:37:58.347Z,23.13
2018-12-26T00:40:25.502Z,20.87
2018-12-26T00:42:52.699Z,19.20
2018-12-26T00:45:19.902Z,23.87
2018-12-26T00:47:47.143Z,24.60
2018-12-26T00:50:14.326Z,26.00
2018-12-26T00:52:41.494Z,26.20
2018-12-26T00:55:08.674Z,26.43
2018-12-26T00:57:35.869Z,24.93
2018-12-26T01:00:03.110Z,22.27
2018-12-26T01:02:30.282Z,23.03
2018-12-26T01:04:57.474Z,25.43
2018-12-26T01:07:24.673Z,22.43
2018-12-26T01:09:51.858Z,25.37
2018-12-26T01:12:19.067Z,27.90
2018-12-26T01:14:46.222Z,21.70
2018-12-26T01:17:13.406Z,26.13
2018-12-26T01:19:40.574Z,22.73
2018-12-26T01:22:07.777Z,19.90
2018-12-26T01:24:34.949Z,24.53
2018-12-26T01:27:02.123Z,24.57
2018-12-26T01:29:29.296Z,22.53
2018-12-26T01:31:56.496Z,26.57
2018-12-26T01:34:23.697Z,24.73
2018-12-26T01:36:50.892Z,19.60
2018-12-26T01:39:18.086Z,25.13
2018-12-26T01:41:45.261Z,28.53
2018-12-26T01:44:12.466Z,29.33
2018-12-26T01:46:39.627Z,26.10
2018-12-26T01:49:06.821Z,29.50
2018-12-26T01:51:33.992Z,28.07
2018-12-26T01:54:01.158Z,20.63
2018-12-26T01:56:28.398Z,23.03
2018-12-26T01:58:55.586Z,23.97
2018-12-26T02:01:22.792Z,29.47
2018-12-26T02:03:49.946Z,29.73
2018-12-26T02:06:17.143Z,27.77
2018-12-26T02:08:44.311Z,27.40
2018-12-26T02:11:11.519Z,31.40
2018-12-26T02:13:38.691Z,32.07
2018-12-26T02:16:05.854Z,30.20
2018-12-26T02:18:33.062Z,30.37
2018-12-26T02:21:00.242Z,31.40
2018-12-26T02:23:27.435Z,34.23
2018-12-26T02:25:54.591Z,31.27
2018-12-26T02:28:21.762Z,35.37
2018-12-26T02:30:48.951Z,33.93
2018-12-26T02:33:16.124Z,36.77
2018-12-26T02:35:43.327Z,32.33
2018-12-26T02:38:10.579Z,33.57
2018-12-26T02:40:37.759Z,32.90
2018-12-26T02:43:04.945Z,30.13
2018-12-26T02:45:32.146Z,32.13
2018-12-26T02:47:59.347Z,32.90
2018-12-26T02:50:26.519Z,32.00
2018-12-26T02:52:53.713Z,31.77
2018-12-26T02:55:20.961Z,32.70
2018-12-26T02:57:48.111Z,31.63
2018-12-26T03:00:15.306Z,30.20
2018-12-26T03:02:42.468Z,29.97
2018-12-26T03:05:09.643Z,30.23
2018-12-26T03:07:36.855Z,34.13
2018-12-26T03:10:05.667Z,33.33
2018-12-26T03:12:32.853Z,32.77
2018-12-26T03:15:00.053Z,35.60
2018-12-26T03:17:27.232Z,33.00
2018-12-26T03:19:54.388Z,30.10
2018-12-26T03:22:21.582Z,34.47
2018-12-26T03:24:48.768Z,35.13
2018-12-26T03:27:15.958Z,35.30
2018-12-26T03:29:43.145Z,34.13
2018-12-26T03:32:10.380Z,33.43
2018-12-26T03:34:37.578Z,31.70
2018-12-26T03:37:04.751Z,34.93
2018-12-26T03:39:31.919Z,34.67
2018-12-26T03:41:59.094Z,33.03
2018-12-26T03:44:26.275Z,31.53
2018-12-26T03:46:53.459Z,31.47
2018-12-26T03:49:20.623Z,33.83
2018-12-26T03:51:47.798Z,33.43
2018-12-26T03:54:14.986Z,35.77
2018-12-26T03:56:42.146Z,29.83
2018-12-26T03:59:09.363Z,31.87
2018-12-26T04:01:36.591Z,32.90
2018-12-26T04:04:03.783Z,33.07
2018-12-26T04:06:30.944Z,33.63
2018-12-26T04:08:58.119Z,35.37
2018-12-26T04:11:25.291Z,31.33
2018-12-26T04:13:52.475Z,31.27
2018-12-26T04:16:19.645Z,33.57
2018-12-26T04:18:46.837Z,30.20
2018-12-26T04:21:14.014Z,31.17
2018-12-26T04:23:41.199Z,31.53
2018-12-26T04:26:08.350Z,32.93
2018-12-26T04:28:35.578Z,31.00
2018-12-26T04:31:02.838Z,31.93
2018-12-26T04:33:30.063Z,30.23
2018-12-26T04:35:57.251Z,34.43
2018-12-26T04:38:24.411Z,33.60
2018-12-26T04:40:51.587Z,32.07
2018-12-26T04:43:18.779Z,33.63
2018-12-26T04:45:45.952Z,35.87
2018-12-26T04:48:13.108Z,33.87
2018-12-26T04:50:40.272Z,34.20
2018-12-26T04:53:07.438Z,33.50
2018-12-26T04:55:34.629Z,37.80
2018-12-26T04:58:01.818Z,35.63
2018-12-26T05:00:28.985Z,35.33
2018-12-26T05:02:56.189Z,36.57
2018-12-26T05:05:23.359Z,39.97
2018-12-26T05:07:50.578Z,41.60
2018-12-26T05:10:17.771Z,42.00
2018-12-26T05:12:44.927Z,42.67
2018-12-26T05:15:12.109Z,43.70
2018-12-26T05:17:39.276Z,42.90
2018-12-26T05:20:06.466Z,42.47
2018-12-26T05:22:33.640Z,41.63
2018-12-26T05:25:00.842Z,44.13
2018-12-26T05:27:34.086Z,42.47
2018-12-26T05:29:56.972Z,44.13
2018-12-26T05:32:24.134Z,41.27
2018-12-26T05:34:51.330Z,44.17
2018-12-26T05:37:18.502Z,44.53
2018-12-26T05:39:45.671Z,46.73
2018-12-26T05:42:12.854Z,49.47
2018-12-26T05:44:40.042Z,47.47
2018-12-26T05:47:07.194Z,47.73
2018-12-26T05:49:34.398Z,48.33
2018-12-26T05:52:01.546Z,46.77
2018-12-26T05:54:28.752Z,47.57
2018-12-26T05:56:55.946Z,47.73
2018-12-26T05:59:23.094Z,46.57
2018-12-26T06:01:50.286Z,45.97
2018-12-26T06:04:17.454Z,44.40
2018-12-26T06:06:44.633Z,48.87
2018-12-26T06:09:11.822Z,50.33
2018-12-26T06:11:38.997Z,51.13
2018-12-26T06:14:06.176Z,48.20
2018-12-26T06:16:33.349Z,51.47
2018-12-26T06:19:00.554Z,49.93
2018-12-26T06:21:27.717Z,48.67
2018-12-26T06:23:54.886Z,53.97
2018-12-26T06:26:22.070Z,51.60
2018-12-26T06:28:49.238Z,52.90
2018-12-26T06:31:16.428Z,53.13
2018-12-26T06:33:43.601Z,52.93
2018-12-26T06:36:10.842Z,54.40
2018-12-26T06:38:38.006Z,54.70
2018-12-26T06:41:05.198Z,57.30
2018-12-26T06:43:32.383Z,55.83
2018-12-26T06:45:59.550Z,56.77
2018-12-26T06:48:26.718Z,58.43
2018-12-26T06:50:53.899Z,59.33
2018-12-26T06:53:21.099Z,58.13
2018-12-26T06:55:48.250Z,60.43
2018-12-26T06:58:15.446Z,60.10
2018-12-26T07:00:42.625Z,57.20
2018-12-26T07:03:09.822Z,59.20
2018-12-26T07:05:36.980Z,55.87
2018-12-26T07:08:04.160Z,60.17
2018-12-26T07:10:31.345Z,58.37
2018-12-26T07:12:58.524Z,61.93
2018-12-26T07:15:25.695Z,59.77
2018-12-26T07:17:52.877Z,64.53
2018-12-26T07:20:20.062Z,66.67
2018-12-26T07:22:47.253Z,64.17
2018-12-26T07:25:14.418Z,64.37
2018-12-26T07:27:41.595Z,67.90
2018-12-26T07:30:08.783Z,60.80
2018-12-26T07:32:35.996Z,65.67
2018-12-26T07:35:03.247Z,69.67
2018-12-26T07:37:30.414Z,75.77
2018-12-26T07:39:57.599Z,68.93
2018-12-26T07:42:24.778Z,72.50
2018-12-26T07:44:51.978Z,75.33
2018-12-26T07:47:19.162Z,73.73
2018-12-26T07:49:46.365Z,71.70
2018-12-26T07:52:13.518Z,66.37
2018-12-26T07:54:40.722Z,83.20
2018-12-26T07:57:07.916Z,78.33
2018-12-26T07:59:37.659Z,72.67
2018-12-26T08:02:03.988Z,65.80
2018-12-26T08:04:31.179Z,62.63
2018-12-26T08:06:58.370Z,67.30
2018-12-26T08:09:25.561Z,71.10
2018-12-26T08:11:52.722Z,67.40
2018-12-26T08:14:19.941Z,67.53
2018-12-26T08:16:47.133Z,67.60
2018-12-26T08:19:14.330Z,71.30
2018-12-26T08:21:41.510Z,70.07
2018-12-26T08:24:08.710Z,67.23
2018-12-26T08:26:35.894Z,71.27
2018-12-26T08:29:03.094Z,68.80
2018-12-26T08:31:30.258Z,62.17
2018-12-26T08:33:57.491Z,62.10
2018-12-26T08:36:24.727Z,71.17
2018-12-26T08:38:51.910Z,62.80
2018-12-26T08:41:19.070Z,62.90
2018-12-26T08:43:46.271Z,57.17
2018-12-26T08:46:13.437Z,59.77
2018-12-26T08:48:40.618Z,57.97
2018-12-26T08:51:07.826Z,54.53
2018-12-26T08:53:34.982Z,54.07
2018-12-26T08:56:02.175Z,55.47
2018-12-26T08:58:35.125Z,53.80
2018-12-26T09:00:58.248Z,55.00
2018-12-26T09:03:25.446Z,58.40
2018-12-26T09:05:52.623Z,54.60
2018-12-26T09:08:19.809Z,51.50
2018-12-26T09:10:46.998Z,51.87
2018-12-26T09:13:14.147Z,49.90
2018-12-26T09:15:41.337Z,51.43
2018-12-26T09:18:08.517Z,57.07
2018-12-26T09:20:35.667Z,52.23
2018-12-26T09:23:02.847Z,50.90
2018-12-26T09:25:30.011Z,53.43
2018-12-26T09:27:57.206Z,48.53
2018-12-26T09:30:24.377Z,47.53
2018-12-26T09:32:51.563Z,51.70
2018-12-26T09:35:20.881Z,54.77
2018-12-26T09:37:47.647Z,51.50
2018-12-26T09:40:14.815Z,49.80
2018-12-26T09:42:41.979Z,47.50
2018-12-26T09:45:09.180Z,43.57
2018-12-26T09:47:36.358Z,48.87
2018-12-26T09:50:03.621Z,52.07
2018-12-26T09:52:30.782Z,48.70
2018-12-26T09:54:57.983Z,45.93
2018-12-26T09:57:25.151Z,45.60
2018-12-26T09:59:52.354Z,45.23
2018-12-26T10:02:19.510Z,47.00
2018-12-26T10:04:46.694Z,43.73
2018-12-26T10:07:13.867Z,40.97
2018-12-26T10:09:41.035Z,46.87
2018-12-26T10:12:08.211Z,41.50
2018-12-26T10:14:35.367Z,44.93
2018-12-26T10:17:02.516Z,44.80
2018-12-26T10:19:29.704Z,43.30
2018-12-26T10:21:56.875Z,37.77
2018-12-26T10:24:24.082Z,34.97
2018-12-26T10:26:51.261Z,38.43
2018-12-26T10:29:18.454Z,38.77
2018-12-26T10:31:45.613Z,35.77
2018-12-26T10:34:12.813Z,39.97
2018-12-26T10:36:39.980Z,29.90
2018-12-26T10:39:07.142Z,37.63
2018-12-26T10:41:34.321Z,36.00
2018-12-26T10:44:01.482Z,35.93
2018-12-26T10:46:28.679Z,36.27
2018-12-26T10:48:55.847Z,36.43
2018-12-26T10:51:23.007Z,31.30
2018-12-26T10:53:50.195Z,27.27
2018-12-26T10:56:17.375Z,32.27
2018-12-26T10:58:44.548Z,27.70
2018-12-26T11:01:11.720Z,31.03
2018-12-26T11:03:38.895Z,28.20
2018-12-26T11:06:06.071Z,29.60
2018-12-26T11:08:33.258Z,31.17
2018-12-26T11:11:00.435Z,27.20
2018-12-26T11:13:27.619Z,28.67
2018-12-26T11:15:54.775Z,31.90
2018-12-26T11:18:21.955Z,29.63
2018-12-26T11:20:49.147Z,27.50
2018-12-26T11:23:16.303Z,28.07
2018-12-26T11:25:43.510Z,29.67
2018-12-26T11:28:10.693Z,28.07
2018-12-26T11:30:37.890Z,26.50
2018-12-26T11:33:05.066Z,19.73
2018-12-26T11:35:32.234Z,24.50
2018-12-26T11:37:59.417Z,27.73
2018-12-26T11:40:26.610Z,27.77
2018-12-26T11:42:53.767Z,27.03
2018-12-26T11:45:20.942Z,25.57
2018-12-26T11:47:48.138Z,27.10
2018-12-26T11:50:15.321Z,26.03
2018-12-26T11:52:42.487Z,24.40
2018-12-26T11:55:09.722Z,26.60
2018-12-26T11:57:37.024Z,24.80
2018-12-26T12:00:05.895Z,24.43
2018-12-26T12:02:33.063Z,26.37
2018-12-26T12:05:00.238Z,26.27
2018-12-26T12:07:27.411Z,24.70
2018-12-26T12:09:54.579Z,24.63
2018-12-26T12:12:21.744Z,23.47
2018-12-26T12:14:48.911Z,24.40
2018-12-26T12:17:16.099Z,23.57
2018-12-26T12:19:45.168Z,23.40
2018-12-26T12:22:12.156Z,24.27
2018-12-26T12:24:39.348Z,24.63
2018-12-26T12:27:06.537Z,21.03
2018-12-26T12:29:36.075Z,23.90
2018-12-26T12:32:02.658Z,25.80
2018-12-26T12:34:29.808Z,25.80
2018-12-26T12:36:57.002Z,25.00
2018-12-26T12:39:24.154Z,20.20
2018-12-26T12:41:51.307Z,21.77
2018-12-26T12:44:18.482Z,21.33
2018-12-26T12:46:45.669Z,21.43
2018-12-26T12:49:12.854Z,21.03
2018-12-26T12:51:40.035Z,23.80
2018-12-26T12:54:07.210Z,23.33
2018-12-26T12:56:34.406Z,25.80
2018-12-26T12:59:01.576Z,21.37
2018-12-26T13:01:28.767Z,26.93
2018-12-26T13:03:55.978Z,25.00
2018-12-26T13:06:23.230Z,24.83
2018-12-26T13:08:50.387Z,25.47
2018-12-26T13:11:17.609Z,26.73
2018-12-26T13:13:44.843Z,23.87
2018-12-26T13:16:12.023Z,25.90
2018-12-26T13:18:39.187Z,24.97
2018-12-26T13:21:06.385Z,25.30
2018-12-26T13:23:33.579Z,25.90
2018-12-26T13:26:00.730Z,26.17
2018-12-26T13:28:27.917Z,26.50
2018-12-26T13:30:55.074Z,24.57
2018-12-26T13:33:22.396Z,24.57
2018-12-26T13:35:49.640Z,25.27
2018-12-26T13:38:16.818Z,24.93
2018-12-26T13:40:44.018Z,22.00
2018-12-26T13:43:11.181Z,24.07
2018-12-26T13:45:38.368Z,23.50
2018-12-26T13:48:05.563Z,21.60
2018-12-26T13:50:32.778Z,21.63
2018-12-26T13:52:59.980Z,19.70
2018-12-26T13:55:27.146Z,23.90
2018-12-26T13:57:54.303Z,22.23
2018-12-26T14:00:21.487Z,23.30
2018-12-26T14:02:48.652Z,18.87
2018-12-26T14:05:15.827Z,18.23
2018-12-26T14:07:43.042Z,23.13
2018-12-26T14:10:10.289Z,21.90
2018-12-26T14:12:37.529Z,19.77
2018-12-26T14:15:06.559Z,17.00
2018-12-26T14:17:33.733Z,23.77
2018-12-26T14:20:00.931Z,22.63
2018-12-26T14:22:28.122Z,21.97
2018-12-26T14:24:55.312Z,20.87
2018-12-26T14:27:29.401Z,21.73
2018-12-26T14:29:51.374Z,20.87
2018-12-26T14:32:18.570Z,21.73
2018-12-26T14:34:45.719Z,18.50
2018-12-26T14:37:12.921Z,20.67
2018-12-26T14:39:40.094Z,21.53
2018-12-26T14:42:07.286Z,21.90
2018-12-26T14:44:34.464Z,21.47
2018-12-26T14:47:01.654Z,21.50
2018-12-26T14:49:28.810Z,22.27
2018-12-26T14:51:56.003Z,20.70
2018-12-26T14:54:23.194Z,21.13
2018-12-26T14:56:50.377Z,18.90
2018-12-26T14:59:17.566Z,21.63
2018-12-26T15:01:44.759Z,22.90
2018-12-26T15:04:11.931Z,24.37
2018-12-26T15:06:39.101Z,25.60
2018-12-26T15:09:07.903Z,24.83
2018-12-26T15:11:35.073Z,23.10
2018-12-26T15:14:02.252Z,23.67
2018-12-26T15:16:29.430Z,26.83
2018-12-26T15:18:58.270Z,25.90
2018-12-26T15:21:25.447Z,26.20
2018-12-26T15:23:52.646Z,26.67
2018-12-26T15:26:19.892Z,27.00
2018-12-26T15:28:47.062Z,26.67
2018-12-26T15:31:14.222Z,26.20
2018-12-26T15:33:41.423Z,24.13
2018-12-26T15:36:08.606Z,23.17
2018-12-26T15:38:35.766Z,22.33
2018-12-26T15:41:02.963Z,18.17
2018-12-26T15:43:30.122Z,19.20
2018-12-26T15:45:57.332Z,20.17
2018-12-26T15:48:24.483Z,23.03
2018-12-26T15:50:51.697Z,23.93
2018-12-26T15:53:18.875Z,23.70
2018-12-26T15:55:46.067Z,22.97
2018-12-26T15:58:13.231Z,23.37
2018-12-26T16:00:40.410Z,26.67
2018-12-26T16:03:07.588Z,24.47
2018-12-26T16:05:34.772Z,25.33
2018-12-26T16:08:02.000Z,23.37
2018-12-26T16:10:29.194Z,25.37
2018-12-26T16:12:56.395Z,24.07
2018-12-26T16:15:23.579Z,23.53
2018-12-26T16:17:50.772Z,22.27
2018-12-26T16:20:17.958Z,22.27
2018-12-26T16:22:45.132Z,22.10
2018-12-26T16:25:12.315Z,19.37
2018-12-26T16:27:39.480Z,18.97
2018-12-26T16:30:08.302Z,23.40
2018-12-26T16:32:35.489Z,25.17
2018-12-26T16:35:02.649Z,24.53
2018-12-26T16:37:29.823Z,26.57
2018-12-26T16:39:57.003Z,24.53
2018-12-26T16:42:24.198Z,21.87
2018-12-26T16:44:51.374Z,22.73
2018-12-26T16:47:18.555Z,27.37
2018-12-26T16:49:45.724Z,26.37
2018-12-26T16:52:12.894Z,27.57
2018-12-26T16:54:40.078Z,27.00
2018-12-26T16:57:07.246Z,25.00
2018-12-26T16:59:34.432Z,28.03
2018-12-26T17:02:01.632Z,24.53
2018-12-26T17:04:28.806Z,26.97
2018-12-26T17:06:56.054Z,29.40
2018-12-26T17:09:23.248Z,28.77
2018-12-26T17:11:50.466Z,28.17
2018-12-26T17:14:17.627Z,26.20
2018-12-26T17:16:44.783Z,26.50
2018-12-26T17:19:12.001Z,26.27
2018-12-26T17:21:39.154Z,30.03
2018-12-26T17:24:06.331Z,32.07
2018-12-26T17:26:33.514Z,29.17
2018-12-26T17:29:00.713Z,30.60
2018-12-26T17:31:27.889Z,30.30
2018-12-26T17:33:55.044Z,29.03
2018-12-26T17:36:22.354Z,31.23
2018-12-26T17:38:49.569Z,32.23
2018-12-26T17:41:16.761Z,35.87
2018-12-26T17:43:43.942Z,34.10
2018-12-26T17:46:11.115Z,34.73
2018-12-26T17:48:38.308Z,31.87
2018-12-26T17:51:07.942Z,27.20
2018-12-26T17:53:36.745Z,35.80
2018-12-26T17:56:14.467Z,35.20
2018-12-26T17:58:52.205Z,28.40
2018-12-26T18:01:21.022Z,34.80
2018-12-26T18:03:48.180Z,38.97
2018-12-26T18:06:15.355Z,30.23
2018-12-26T18:08:42.562Z,39.50
2018-12-26T18:11:09.718Z,37.40
2018-12-26T18:13:36.903Z,36.40
2018-12-26T18:16:04.096Z,37.93
2018-12-26T18:18:31.277Z,38.40
2018-12-26T18:20:58.480Z,42.13
2018-12-26T18:23:25.657Z,42.30
2018-12-26T18:25:52.825Z,38.63
2018-12-26T18:28:20.106Z,34.63
2018-12-26T18:30:47.267Z,35.37
2018-12-26T18:33:14.447Z,37.47
2018-12-26T18:35:41.659Z,36.63
2018-12-26T18:38:08.842Z,43.53
2018-12-26T18:40:36.033Z,44.77
2018-12-26T18:43:03.241Z,33.47
2018-12-26T18:45:30.427Z,39.77
2018-12-26T18:47:57.609Z,40.73
2018-12-26T18:50:24.780Z,39.80
2018-12-26T18:52:51.935Z,41.87
2018-12-26T18:55:19.124Z,45.03
2018-12-26T18:57:46.289Z,44.10
2018-12-26T19:00:13.472Z,41.47
2018-12-26T19:02:40.631Z,43.10
2018-12-26T19:05:07.856Z,43.47
2018-12-26T19:07:35.037Z,36.17
2018-12-26T19:10:03.834Z,43.47
2018-12-26T19:12:31.027Z,43.03
2018-12-26T19:14:58.179Z,47.00
2018-12-26T19:17:25.366Z,44.10
2018-12-26T19:19:52.528Z,44.27
2018-12-26T19:22:19.720Z,39.87
2018-12-26T19:24:46.915Z,40.83
2018-12-26T19:27:14.103Z,39.73
2018-12-26T19:29:41.267Z,43.40
2018-12-26T19:32:08.439Z,45.43
2018-12-26T19:34:35.639Z,42.77
2018-12-26T19:37:02.793Z,46.83
2018-12-26T19:39:29.985Z,40.30
2018-12-26T19:41:57.157Z,42.60
2018-12-26T19:44:24.338Z,39.07
2018-12-26T19:46:51.523Z,38.90
2018-12-26T19:49:18.716Z,33.13
2018-12-26T19:51:45.870Z,45.60
2018-12-26T19:54:13.056Z,47.13
2018-12-26T19:56:40.255Z,40.77
2018-12-26T19:59:07.424Z,44.70
2018-12-26T20:01:34.626Z,28.73
2018-12-26T20:04:01.791Z,43.77
2018-12-26T20:06:28.963Z,47.13
2018-12-26T20:08:56.151Z,44.10
2018-12-26T20:11:23.350Z,38.70
2018-12-26T20:13:50.539Z,42.10
2018-12-26T20:16:17.720Z,45.60
2018-12-26T20:18:44.931Z,37.70
2018-12-26T20:21:12.110Z,42.53
2018-12-26T20:23:39.298Z,40.93
2018-12-26T20:26:06.483Z,36.57
2018-12-26T20:28:33.642Z,36.37
2018-12-26T20:31:00.838Z,38.87
2018-12-26T20:33:28.014Z,35.23
2018-12-26T20:35:55.195Z,41.40
2018-12-26T20:38:22.383Z,37.40
2018-12-26T20:40:49.563Z,36.17
2018-12-26T20:43:16.758Z,37.20
2018-12-26T20:45:45.294Z,36.43
2018-12-26T20:48:12.494Z,38.53
2018-12-26T20:50:39.698Z,38.90
2018-12-26T20:53:06.872Z,36.47
2018-12-26T20:55:34.097Z,39.50
2018-12-26T20:58:01.250Z,37.47
2018-12-26T21:00:28.430Z,38.33
2018-12-26T21:02:55.589Z,39.17
2018-12-26T21:05:22.774Z,36.63
2018-12-26T21:07:49.944Z,34.37
2018-12-26T21:10:17.146Z,33.87
2018-12-26T21:12:44.330Z,27.83
2018-12-26T21:15:11.549Z,32.33
2018-12-26T21:17:38.726Z,40.17
2018-12-26T21:20:07.511Z,37.43
2018-12-26T21:22:34.789Z,23.57
2018-12-26T21:25:02.019Z,34.70
2018-12-26T21:27:29.186Z,29.50
2018-12-26T21:29:56.462Z,33.77
2018-12-26T21:32:23.695Z,36.00
2018-12-26T21:34:50.881Z,38.10
2018-12-26T21:37:18.092Z,26.20
2018-12-26T21:39:45.266Z,31.83
2018-12-26T21:42:12.451Z,34.07
2018-12-26T21:44:39.631Z,25.27
2018-12-26T21:47:06.783Z,31.87
2018-12-26T21:49:33.962Z,27.70
2018-12-26T21:52:01.186Z,35.10
2018-12-26T21:54:28.359Z,29.10
2018-12-26T21:56:55.533Z,33.53
2018-12-26T21:59:22.755Z,36.90
2018-12-26T22:01:49.916Z,33.30
2018-12-26T22:04:17.092Z,27.40
2018-12-26T22:06:44.287Z,30.53
2018-12-26T22:09:11.446Z,30.47
2018-12-26T22:11:38.639Z,34.33
2018-12-26T22:14:05.817Z,23.43
2018-12-26T22:16:33.003Z,25.80
2018-12-26T22:19:00.151Z,31.10
2018-12-26T22:21:27.362Z,32.30
2018-12-26T22:23:54.540Z,31.23
2018-12-26T22:26:21.728Z,29.07
2018-12-26T22:28:48.899Z,28.40
2018-12-26T22:31:16.064Z,32.07
2018-12-26T22:33:43.251Z,30.73
2018-12-26T22:36:10.419Z,29.77
2018-12-26T22:38:37.634Z,27.10
2018-12-26T22:41:04.806Z,28.07
2018-12-26T22:43:32.014Z,26.63
2018-12-26T22:45:59.200Z,30.37
2018-12-26T22:48:26.377Z,29.13
2018-12-26T22:50:53.547Z,28.10
2018-12-26T22:53:20.715Z,28.00
2018-12-26T22:55:47.879Z,29.03
2018-12-26T22:58:15.067Z,31.77
2018-12-26T23:00:43.875Z,29.83
2018-12-26T23:03:11.053Z,25.27
2018-12-26T23:05:38.252Z,25.27
2018-12-26T23:08:05.426Z,22.70
2018-12-26T23:10:32.583Z,24.03
2018-12-26T23:12:59.771Z,22.20
2018-12-26T23:15:26.944Z,24.13
2018-12-26T23:17:54.171Z,26.13
2018-12-26T23:20:21.357Z,26.80
2018-12-26T23:22:48.523Z,19.97
2018-12-26T23:25:15.695Z,22.73
2018-12-26T23:27:42.876Z,18.93
2018-12-26T23:30:10.051Z,21.30
2018-12-26T23:32:37.256Z,20.90
2018-12-26T23:35:04.616Z,26.07
2018-12-26T23:37:31.773Z,26.77
2018-12-26T23:39:58.928Z,22.73
2018-12-26T23:42:26.109Z,22.60
2018-12-26T23:44:53.281Z,23.57
2018-12-26T23:47:20.467Z,24.33
2018-12-26T23:49:47.683Z,24.83
2018-12-26T23:52:14.909Z,24.73
2018-12-26T23:54:42.094Z,23.60
2018-12-26T23:57:09.273Z,23.47
2018-12-26T23:59:36.435Z,23.60
